Time;durP1;ratioP1;P1;durP2;ratioP2;P2;SDS_P1;SDS_P2;PMS_P1;PMS_P2;Temp;Humidity;BMP_temperature;BMP_pressure;BME280_temperature;BME280_humidity;BME280_pressure;Samples;Min_cycle;Max_cycle;Signal;HPM_P1;HPM_P2
2024/03/19 00:01:21;;;;;;;;;;;19.70;40.00;;;;;;8359872;27;20369;-59
2024/03/19 00:05:22;;;;;;;;;;;19.70;39.90;;;;;;8359018;28;20297;-57
2024/03/19 00:09:22;;;;;;;;;;;19.60;40.40;;;;;;8359224;28;19913;-58
2024/03/19 00:13:23;;;;;;;;;;;19.40;41.40;;;;;;8358627;27;19925;-59
2024/03/19 00:17:23;;;;;;;;;;;19.40;41.60;;;;;;8358705;28;19923;-59
2024/03/19 00:21:24;;;;;;;;;;;19.40;41.00;;;;;;8358909;28;19962;-59
2024/03/19 00:25:25;;;;;;;;;;;19.50;40.80;;;;;;8358662;28;19917;-59
2024/03/19 00:29:26;;;;;;;;;;;19.60;40.50;;;;;;8358217;28;19912;-59
2024/03/19 00:33:26;;;;;;;;;;;19.60;40.30;;;;;;8358419;28;19934;-59
2024/03/19 00:37:27;;;;;;;;;;;19.60;40.20;;;;;;8374908;27;19912;-59
2024/03/19 00:41:28;;;;;;;;;;;19.60;40.10;;;;;;8342449;27;20330;-59
2024/03/19 00:45:29;;;;;;;;;;;19.60;39.90;;;;;;8358190;28;19961;-59
2024/03/19 00:49:29;;;;;;;;;;;19.60;39.90;;;;;;8357981;28;19976;-59
2024/03/19 00:53:30;;;;;;;;;;;19.60;39.80;;;;;;8357989;28;19957;-59
2024/03/19 00:57:32;;;;;;;;;;;19.50;40.50;;;;;;8358119;28;20366;-58
2024/03/19 01:01:32;;;;;;;;;;;19.40;41.60;;;;;;8357685;27;20000;-59
2024/03/19 01:05:33;;;;;;;;;;;19.30;41.50;;;;;;8357697;28;19913;-60
2024/03/19 01:09:35;;;;;;;;;;;19.40;41.00;;;;;;8358246;28;19960;-58
2024/03/19 01:13:35;;;;;;;;;;;19.50;40.70;;;;;;8356970;27;19931;-58
2024/03/19 01:17:36;;;;;;;;;;;19.50;40.40;;;;;;8357236;28;20011;-58
2024/03/19 01:21:36;;;;;;;;;;;19.50;40.30;;;;;;8357418;28;19909;-58
2024/03/19 01:25:37;;;;;;;;;;;19.60;40.20;;;;;;8357245;28;19976;-58
2024/03/19 01:29:37;;;;;;;;;;;19.60;40.00;;;;;;8357040;28;19913;-58
2024/03/19 01:33:38;;;;;;;;;;;19.60;40.00;;;;;;8357137;28;20313;-59
2024/03/19 01:37:39;;;;;;;;;;;19.60;39.90;;;;;;8374192;27;19916;-58
2024/03/19 01:41:39;;;;;;;;;;;19.60;39.80;;;;;;8359330;27;19911;-58
2024/03/19 01:45:40;;;;;;;;;;;19.50;40.60;;;;;;8356617;28;19913;-58
2024/03/19 01:49:41;;;;;;;;;;;19.30;41.50;;;;;;8356628;28;19920;-59
2024/03/19 01:53:41;;;;;;;;;;;19.30;41.40;;;;;;8356718;28;20391;-58
2024/03/19 01:57:46;;;;;;;;;;;19.40;41.00;;;;;;8356194;28;19921;-58
2024/03/19 02:01:47;;;;;;;;;;;19.50;40.70;;;;;;8356505;27;19909;-58
2024/03/19 02:05:47;;;;;;;;;;;19.50;40.40;;;;;;8356152;28;19919;-58
2024/03/19 02:09:49;;;;;;;;;;;19.50;40.30;;;;;;8356297;28;19916;-58
2024/03/19 02:13:50;;;;;;;;;;;19.50;40.10;;;;;;8355770;27;20401;-58
2024/03/19 02:17:51;;;;;;;;;;;19.60;40.10;;;;;;8355845;28;20276;-58
2024/03/19 02:21:54;;;;;;;;;;;19.60;40.00;;;;;;8355308;28;21656;-58
2024/03/19 02:25:54;;;;;;;;;;;19.60;39.90;;;;;;8355566;28;20297;-59
2024/03/19 02:29:55;;;;;;;;;;;19.60;39.80;;;;;;8355425;28;20633;-59
2024/03/19 02:33:56;;;;;;;;;;;19.50;40.70;;;;;;8355695;28;20380;-59
2024/03/19 02:37:56;;;;;;;;;;;19.30;41.60;;;;;;8372652;27;19924;-60
2024/03/19 02:41:57;;;;;;;;;;;19.30;41.30;;;;;;8357373;27;20049;-59
2024/03/19 02:45:57;;;;;;;;;;;19.40;40.90;;;;;;8355326;28;19913;-60
2024/03/19 02:49:58;;;;;;;;;;;19.50;40.60;;;;;;8355166;28;19916;-59
2024/03/19 02:53:59;;;;;;;;;;;19.50;40.40;;;;;;8355120;28;19916;-59
2024/03/19 02:57:59;;;;;;;;;;;19.50;40.20;;;;;;8355071;28;19917;-59
2024/03/19 03:02:00;;;;;;;;;;;19.50;40.00;;;;;;8359256;28;19920;-59
2024/03/19 03:06:00;;;;;;;;;;;19.50;40.00;;;;;;8360863;28;19936;-60
2024/03/19 03:10:03;;;;;;;;;;;19.60;39.90;;;;;;8360734;28;19916;-59
2024/03/19 03:14:04;;;;;;;;;;;19.60;39.80;;;;;;8360502;27;20278;-59
2024/03/19 03:18:05;;;;;;;;;;;19.60;39.80;;;;;;8360551;28;19921;-59
2024/03/19 03:22:05;;;;;;;;;;;19.40;40.70;;;;;;8360569;28;19920;-58
2024/03/19 03:26:06;;;;;;;;;;;19.30;41.60;;;;;;8360097;27;19919;-59
2024/03/19 03:30:10;;;;;;;;;;;19.30;41.30;;;;;;8360023;28;20020;-58
2024/03/19 03:34:11;;;;;;;;;;;19.30;40.80;;;;;;8360209;28;19908;-58
2024/03/19 03:38:11;;;;;;;;;;;19.40;40.50;;;;;;8377331;27;19916;-58
2024/03/19 03:42:12;;;;;;;;;;;19.50;40.30;;;;;;8361720;27;19917;-58
2024/03/19 03:46:13;;;;;;;;;;;19.50;40.20;;;;;;8359717;28;19964;-58
2024/03/19 03:50:14;;;;;;;;;;;19.50;40.00;;;;;;8342398;28;19916;-58
2024/03/19 03:54:15;;;;;;;;;;;19.50;40.00;;;;;;8359931;28;19920;-57
2024/03/19 03:58:15;;;;;;;;;;;19.50;39.80;;;;;;8359699;27;19956;-58
2024/03/19 04:02:16;;;;;;;;;;;19.50;39.70;;;;;;8359514;28;19913;-58
2024/03/19 04:06:16;;;;;;;;;;;19.50;39.70;;;;;;8360331;28;19920;-58
2024/03/19 04:10:17;;;;;;;;;;;19.40;40.90;;;;;;8359098;28;19913;-58
2024/03/19 04:14:17;;;;;;;;;;;19.20;41.70;;;;;;8357896;27;19925;-58
2024/03/19 04:18:18;;;;;;;;;;;19.30;41.20;;;;;;8358823;28;19916;-58
2024/03/19 04:22:18;;;;;;;;;;;19.40;40.80;;;;;;8358759;28;20003;-58
2024/03/19 04:26:19;;;;;;;;;;;19.40;40.40;;;;;;8358781;28;19913;-58
2024/03/19 04:30:20;;;;;;;;;;;19.50;40.30;;;;;;8358610;28;19942;-58
2024/03/19 04:34:21;;;;;;;;;;;19.50;40.20;;;;;;8358487;28;19913;-58
2024/03/19 04:38:21;;;;;;;;;;;19.50;40.00;;;;;;8375552;27;20335;-59
2024/03/19 04:42:23;;;;;;;;;;;19.50;39.90;;;;;;8360093;27;19924;-58
2024/03/19 04:46:23;;;;;;;;;;;19.50;39.70;;;;;;8358192;28;19912;-59
2024/03/19 04:50:24;;;;;;;;;;;19.50;39.70;;;;;;8357927;28;20402;-59
2024/03/19 04:54:25;;;;;;;;;;;19.50;39.70;;;;;;8358009;28;19978;-59
2024/03/19 04:58:25;;;;;;;;;;;19.40;40.90;;;;;;8357834;28;19924;-59
2024/03/19 05:02:26;;;;;;;;;;;19.20;41.60;;;;;;8357483;28;19913;-59
2024/03/19 05:06:26;;;;;;;;;;;19.30;41.10;;;;;;8357918;28;19956;-59
2024/03/19 05:10:27;;;;;;;;;;;19.30;40.60;;;;;;8357580;28;19913;-58
2024/03/19 05:14:28;;;;;;;;;;;19.40;40.40;;;;;;8357069;27;20031;-59
2024/03/19 05:18:28;;;;;;;;;;;19.50;40.20;;;;;;8357242;28;19917;-59
2024/03/19 05:22:30;;;;;;;;;;;19.50;39.90;;;;;;8356814;28;19932;-58
2024/03/19 05:26:31;;;;;;;;;;;19.60;39.80;;;;;;8357040;28;19921;-59
2024/03/19 05:30:31;;;;;;;;;;;19.60;39.60;;;;;;8357056;28;19913;-59
2024/03/19 05:34:32;;;;;;;;;;;19.60;39.50;;;;;;8356803;28;19924;-59
2024/03/19 05:38:33;;;;;;;;;;;19.60;39.40;;;;;;8373820;27;19920;-59
2024/03/19 05:42:34;;;;;;;;;;;19.60;39.20;;;;;;8357312;27;20032;-59
2024/03/19 05:46:34;;;;;;;;;;;19.50;40.60;;;;;;8356501;28;19909;-59
2024/03/19 05:50:35;;;;;;;;;;;19.40;41.10;;;;;;8356981;28;19960;-58
2024/03/19 05:54:36;;;;;;;;;;;19.50;40.60;;;;;;8356674;28;19913;-60
2024/03/19 05:58:36;;;;;;;;;;;19.50;40.10;;;;;;8356060;27;20007;-59
2024/03/19 06:02:37;;;;;;;;;;;19.60;39.80;;;;;;8356055;28;20370;-60
2024/03/19 06:06:37;;;;;;;;;;;19.70;39.70;;;;;;8356496;28;19920;-59
2024/03/19 06:10:38;;;;;;;;;;;19.60;39.50;;;;;;8356002;28;19920;-60
2024/03/19 06:14:39;;;;;;;;;;;19.70;39.40;;;;;;8355615;27;20501;-60
2024/03/19 06:18:40;;;;;;;;;;;19.70;39.30;;;;;;8355820;28;19917;-60
2024/03/19 06:22:42;;;;;;;;;;;19.70;39.20;;;;;;8355904;28;19920;-61
2024/03/19 06:26:43;;;;;;;;;;;19.70;39.10;;;;;;8355833;28;19916;-60
2024/03/19 06:30:43;;;;;;;;;;;19.70;39.30;;;;;;8355473;28;19913;-58
2024/03/19 06:34:44;;;;;;;;;;;19.50;40.60;;;;;;8354565;28;19913;-58
2024/03/19 06:38:44;;;;;;;;;;;19.40;41.60;;;;;;8355184;28;19959;-58
2024/03/19 06:42:45;;;;;;;;;;;19.50;40.40;;;;;;8339262;27;19913;-59
2024/03/19 06:46:46;;;;;;;;;;;19.60;40.00;;;;;;8355195;28;19920;-59
2024/03/19 06:50:48;;;;;;;;;;;19.60;39.70;;;;;;8355273;28;20259;-58
2024/03/19 06:54:49;;;;;;;;;;;19.70;39.60;;;;;;8354968;28;20324;-58
2024/03/19 06:58:49;;;;;;;;;;;19.70;39.50;;;;;;8354983;27;19917;-60
2024/03/19 07:02:50;;;;;;;;;;;19.70;39.40;;;;;;8354925;28;19979;-60
2024/03/19 07:06:51;;;;;;;;;;;19.70;39.20;;;;;;8355063;28;19912;-60
2024/03/19 07:10:54;;;;;;;;;;;19.70;39.10;;;;;;8354794;28;19913;-60
2024/03/19 07:15:00;;;;;;;;;;;19.70;39.10;;;;;;8354601;28;20012;-60
2024/03/19 07:19:01;;;;;;;;;;;19.70;39.40;;;;;;8354500;28;19913;-60
2024/03/19 07:23:02;;;;;;;;;;;19.50;40.50;;;;;;8355385;28;20315;-59
2024/03/19 07:27:04;;;;;;;;;;;19.50;40.80;;;;;;8354545;28;19913;-59
2024/03/19 07:31:04;;;;;;;;;;;19.50;40.30;;;;;;8354219;28;19915;-60
2024/03/19 07:35:05;;;;;;;;;;;19.60;39.90;;;;;;8354262;28;20254;-59
2024/03/19 07:39:11;;;;;;;;;;;19.70;39.60;;;;;;8381336;27;20000;-59
2024/03/19 07:43:14;;;;;;;;;;;19.70;39.50;;;;;;8355895;27;19909;-59
2024/03/19 07:47:15;;;;;;;;;;;19.70;39.40;;;;;;8357350;28;19920;-59
2024/03/19 07:51:15;;;;;;;;;;;19.70;39.20;;;;;;8359670;28;19913;-59
2024/03/19 07:55:16;;;;;;;;;;;19.70;39.10;;;;;;8341577;28;20285;-60
2024/03/19 07:59:17;;;;;;;;;;;19.80;39.10;;;;;;8359455;28;19940;-60
2024/03/19 08:03:18;;;;;;;;;;;19.70;39.00;;;;;;8359196;28;19913;-59
2024/03/19 08:07:19;;;;;;;;;;;19.70;39.60;;;;;;8359271;28;19962;-60
2024/03/19 08:11:19;;;;;;;;;;;19.60;40.50;;;;;;8359511;28;19913;-58
2024/03/19 08:15:20;;;;;;;;;;;19.40;40.60;;;;;;8348763;28;19928;-58
2024/03/19 08:19:21;;;;;;;;;;;19.60;40.20;;;;;;8358895;28;19917;-58
2024/03/19 08:23:21;;;;;;;;;;;19.60;39.80;;;;;;8358686;28;20281;-58
2024/03/19 08:27:22;;;;;;;;;;;19.70;39.60;;;;;;8359041;28;19912;-58
2024/03/19 08:31:23;;;;;;;;;;;19.70;39.50;;;;;;8327021;28;20008;-59
2024/03/19 08:35:23;;;;;;;;;;;19.70;39.30;;;;;;8332328;28;19952;-58
2024/03/19 08:39:24;;;;;;;;;;;19.70;39.30;;;;;;8358381;28;20216;-57
2024/03/19 08:43:24;;;;;;;;;;;19.70;39.10;;;;;;8358116;28;19909;-57
2024/03/19 08:47:25;;;;;;;;;;;19.70;39.00;;;;;;8358322;28;19924;-58
2024/03/19 08:51:26;;;;;;;;;;;19.70;39.00;;;;;;8358096;28;20294;-58
2024/03/19 08:55:26;;;;;;;;;;;19.70;39.60;;;;;;8357705;28;19913;-58
2024/03/19 08:59:27;;;;;;;;;;;19.50;40.60;;;;;;8356960;27;19920;-59
2024/03/19 09:03:27;;;;;;;;;;;19.50;40.70;;;;;;8357973;28;20442;-58
2024/03/19 09:07:28;;;;;;;;;;;19.60;40.10;;;;;;8357639;28;19999;-57
2024/03/19 09:11:31;;;;;;;;;;;19.60;39.70;;;;;;8356224;28;19919;-58
2024/03/19 09:15:32;;;;;;;;;;;19.70;39.60;;;;;;8357361;28;19925;-58
2024/03/19 09:19:39;;;;;;;;;;;19.70;39.40;;;;;;8357432;28;19931;-58
2024/03/19 09:23:40;;;;;;;;;;;19.70;39.20;;;;;;8357287;28;20019;-58
2024/03/19 09:27:42;;;;;;;;;;;19.70;39.10;;;;;;8356886;28;19913;-58
2024/03/19 09:31:42;;;;;;;;;;;19.80;39.10;;;;;;8357406;28;19913;-58
2024/03/19 09:35:43;;;;;;;;;;;19.80;39.00;;;;;;8356958;28;20456;-58
2024/03/19 09:39:44;;;;;;;;;;;19.70;38.90;;;;;;8373993;27;19913;-58
2024/03/19 09:43:48;;;;;;;;;;;19.60;39.80;;;;;;8358356;27;20053;-58
2024/03/19 09:47:48;;;;;;;;;;;19.50;40.60;;;;;;8356778;28;19913;-58
2024/03/19 09:51:49;;;;;;;;;;;19.50;40.50;;;;;;8356720;28;19909;-58
2024/03/19 09:55:51;;;;;;;;;;;19.60;40.00;;;;;;8356406;28;19917;-58
2024/03/19 09:59:52;;;;;;;;;;;19.60;39.70;;;;;;8356494;27;20362;-58
2024/03/19 10:03:54;;;;;;;;;;;19.70;39.60;;;;;;8356221;28;19917;-58
2024/03/19 10:07:54;;;;;;;;;;;19.70;39.40;;;;;;8356300;28;19917;-58
2024/03/19 10:11:55;;;;;;;;;;;19.70;39.20;;;;;;8354893;28;19927;-59
2024/03/19 10:15:57;;;;;;;;;;;19.70;39.10;;;;;;8355592;28;20009;-58
2024/03/19 10:19:58;;;;;;;;;;;19.70;39.00;;;;;;8356036;28;19916;-58
2024/03/19 10:24:05;;;;;;;;;;;19.70;39.00;;;;;;8355804;28;19944;-58
2024/03/19 10:28:06;;;;;;;;;;;19.70;38.90;;;;;;8337781;28;19909;-58
2024/03/19 10:32:09;;;;;;;;;;;19.60;40.50;;;;;;8355916;28;19956;-59
2024/03/19 10:36:24;;;;;;;;;;;19.40;40.80;;;;;;8355208;28;19954;-60
2024/03/19 10:40:26;;;;;;;;;;;19.50;40.50;;;;;;8372786;27;20369;-59
2024/03/19 10:44:29;;;;;;;;;;;19.60;40.00;;;;;;8357112;27;20356;-59
2024/03/19 10:48:30;;;;;;;;;;;19.60;39.70;;;;;;8355130;28;19959;-60
2024/03/19 10:52:31;;;;;;;;;;;19.70;39.50;;;;;;8355325;28;20417;-60
2024/03/19 10:56:32;;;;;;;;;;;19.60;39.30;;;;;;8355711;28;20376;-60
2024/03/19 11:00:33;;;;;;;;;;;19.70;39.30;;;;;;8355274;27;19981;-59
2024/03/19 11:04:35;;;;;;;;;;;19.70;39.20;;;;;;8354920;28;19917;-61
2024/03/19 11:08:36;;;;;;;;;;;19.70;39.10;;;;;;8355181;28;19909;-59
2024/03/19 11:12:37;;;;;;;;;;;19.70;39.00;;;;;;8354666;27;20409;-60
2024/03/19 11:16:40;;;;;;;;;;;19.70;38.90;;;;;;8354886;28;19917;-57
2024/03/19 11:20:44;;;;;;;;;;;19.60;40.10;;;;;;8355540;28;19909;-59
2024/03/19 11:24:49;;;;;;;;;;;19.50;40.90;;;;;;8360578;28;19927;-58
2024/03/19 11:28:59;;;;;;;;;;;19.50;40.40;;;;;;8342492;28;19924;-59
2024/03/19 11:33:01;;;;;;;;;;;19.50;39.90;;;;;;8360330;28;19913;-60
2024/03/19 11:37:02;;;;;;;;;;;19.60;39.70;;;;;;8377070;27;19956;-58
2024/03/19 11:41:04;;;;;;;;;;;19.60;39.50;;;;;;8360436;28;19966;-60
2024/03/19 11:45:05;;;;;;;;;;;19.60;39.30;;;;;;8361718;27;19913;-58
2024/03/19 11:49:19;;;;;;;;;;;19.70;39.20;;;;;;8359979;28;19920;-60
2024/03/19 11:53:20;;;;;;;;;;;19.60;39.00;;;;;;8359802;28;20262;-60
2024/03/19 11:57:22;;;;;;;;;;;19.70;39.10;;;;;;8359627;28;19913;-60
2024/03/19 12:01:22;;;;;;;;;;;19.70;39.00;;;;;;8360312;27;19938;-60
2024/03/19 12:05:27;;;;;;;;;;;19.70;39.10;;;;;;8359524;28;19916;-60
2024/03/19 12:09:28;;;;;;;;;;;19.50;40.50;;;;;;8359371;28;19942;-60
2024/03/19 12:13:29;;;;;;;;;;;19.40;40.90;;;;;;8358794;27;20318;-60
2024/03/19 12:17:30;;;;;;;;;;;19.50;40.30;;;;;;8359004;28;19952;-60
2024/03/19 12:21:30;;;;;;;;;;;19.60;39.90;;;;;;8358968;28;20503;-59
2024/03/19 12:25:34;;;;;;;;;;;19.60;39.60;;;;;;8358681;28;19927;-60
2024/03/19 12:29:35;;;;;;;;;;;19.60;39.40;;;;;;8358736;28;19955;-60
2024/03/19 12:33:40;;;;;;;;;;;19.70;39.30;;;;;;8357781;28;19919;-60
2024/03/19 12:37:41;;;;;;;;;;;19.70;39.70;;;;;;8376274;27;19916;-58
2024/03/19 12:41:41;;;;;;;;;;;19.70;39.10;;;;;;8360598;27;19914;-60
2024/03/19 12:45:42;;;;;;;;;;;19.70;39.00;;;;;;8358186;28;19965;-59
2024/03/19 12:49:43;;;;;;;;;;;19.70;39.00;;;;;;8358305;28;20293;-59
2024/03/19 12:53:43;;;;;;;;;;;19.70;39.30;;;;;;8340419;28;19917;-59
2024/03/19 12:57:44;;;;;;;;;;;19.50;40.40;;;;;;8358498;28;19917;-59
2024/03/19 13:01:45;;;;;;;;;;;19.40;41.20;;;;;;8357928;27;19948;-59
2024/03/19 13:05:45;;;;;;;;;;;19.50;40.20;;;;;;8358085;28;20004;-59
2024/03/19 13:09:46;;;;;;;;;;;19.60;39.80;;;;;;8357723;28;20369;-59
2024/03/19 13:13:46;;;;;;;;;;;19.60;39.50;;;;;;8357474;27;19925;-59
2024/03/19 13:17:48;;;;;;;;;;;19.70;39.40;;;;;;8357620;28;19912;-59
2024/03/19 13:21:49;;;;;;;;;;;19.70;39.30;;;;;;8357441;28;19913;-59
2024/03/19 13:25:49;;;;;;;;;;;19.70;39.10;;;;;;8357558;27;20392;-59
2024/03/19 13:29:51;;;;;;;;;;;19.70;39.10;;;;;;8357298;28;20295;-59
2024/03/19 13:33:51;;;;;;;;;;;19.70;39.00;;;;;;8357091;28;19913;-59
2024/03/19 13:37:52;;;;;;;;;;;19.70;39.00;;;;;;8373784;27;19912;-59
2024/03/19 13:41:53;;;;;;;;;;;19.70;39.30;;;;;;8358833;27;19916;-59
2024/03/19 13:45:58;;;;;;;;;;;19.50;40.60;;;;;;8357043;28;19917;-58
2024/03/19 13:49:58;;;;;;;;;;;19.40;40.70;;;;;;8338899;28;19913;-59
2024/03/19 13:53:59;;;;;;;;;;;19.50;40.10;;;;;;8356510;28;19953;-58
2024/03/19 13:58:01;;;;;;;;;;;19.60;39.80;;;;;;8356626;27;19917;-59
2024/03/19 14:02:03;;;;;;;;;;;19.60;39.50;;;;;;8356453;28;19923;-59
2024/03/19 14:06:03;;;;;;;;;;;19.70;39.40;;;;;;8356717;28;19931;-58
2024/03/19 14:10:05;;;;;;;;;;;19.60;39.20;;;;;;8356284;28;19910;-59
2024/03/19 14:14:06;;;;;;;;;;;19.70;39.20;;;;;;8348278;28;19925;-59
2024/03/19 14:18:06;;;;;;;;;;;19.70;39.10;;;;;;8355801;28;19960;-58
2024/03/19 14:22:07;;;;;;;;;;;19.70;39.10;;;;;;8356103;28;19908;-59
2024/03/19 14:26:10;;;;;;;;;;;19.70;39.00;;;;;;8337794;28;19913;-59
2024/03/19 14:30:14;;;;;;;;;;;19.70;39.60;;;;;;8355620;28;20001;-58
2024/03/19 14:34:15;;;;;;;;;;;19.40;40.60;;;;;;8355506;28;19916;-59
2024/03/19 14:38:16;;;;;;;;;;;19.40;40.60;;;;;;8368840;27;19916;-59
2024/03/19 14:42:16;;;;;;;;;;;19.50;40.10;;;;;;8357542;27;20518;-59
2024/03/19 14:46:20;;;;;;;;;;;19.60;39.80;;;;;;8355615;28;19913;-59
2024/03/19 14:50:20;;;;;;;;;;;19.60;39.60;;;;;;8355544;28;19944;-59
2024/03/19 14:54:21;;;;;;;;;;;19.60;39.40;;;;;;8355113;28;19920;-59
2024/03/19 14:58:22;;;;;;;;;;;19.70;39.40;;;;;;8359847;27;19912;-59
2024/03/19 15:02:25;;;;;;;;;;;19.60;39.20;;;;;;8360858;28;19913;-58
2024/03/19 15:06:26;;;;;;;;;;;19.60;39.10;;;;;;8361041;28;20378;-59
2024/03/19 15:10:27;;;;;;;;;;;19.60;39.00;;;;;;8360800;28;20294;-58
2024/03/19 15:14:27;;;;;;;;;;;19.70;39.10;;;;;;8360585;27;19931;-59
2024/03/19 15:18:28;;;;;;;;;;;19.60;39.80;;;;;;8360319;28;19959;-57
2024/03/19 15:22:28;;;;;;;;;;;19.40;40.70;;;;;;8360210;28;19915;-58
2024/03/19 15:26:30;;;;;;;;;;;19.30;41.60;;;;;;8360575;28;19952;-58
2024/03/19 15:30:31;;;;;;;;;;;19.30;40.90;;;;;;8360082;28;19955;-59
2024/03/19 15:34:31;;;;;;;;;;;19.30;40.90;;;;;;8359979;28;19913;-59
2024/03/19 15:38:32;;;;;;;;;;;19.30;41.00;;;;;;8376853;27;19913;-59
2024/03/19 15:42:32;;;;;;;;;;;19.30;41.10;;;;;;8361652;27;20365;-59
2024/03/19 15:46:33;;;;;;;;;;;19.30;41.10;;;;;;8359774;28;19916;-58
2024/03/19 15:50:34;;;;;;;;;;;19.30;41.10;;;;;;8360585;28;20433;-59
2024/03/19 15:54:36;;;;;;;;;;;19.30;41.10;;;;;;8359600;28;20393;-58
2024/03/19 15:58:37;;;;;;;;;;;19.30;41.10;;;;;;8359253;28;19917;-59
2024/03/19 16:02:44;;;;;;;;;;;19.30;41.20;;;;;;8359116;28;19916;-59
2024/03/19 16:06:46;;;;;;;;;;;19.30;41.30;;;;;;8358933;27;20545;-58
2024/03/19 16:10:48;;;;;;;;;;;19.30;41.30;;;;;;8359242;28;19961;-58
2024/03/19 16:14:48;;;;;;;;;;;19.20;41.30;;;;;;8358642;27;19935;-59
2024/03/19 16:18:49;;;;;;;;;;;19.20;41.30;;;;;;8358918;28;20400;-59
2024/03/19 16:22:49;;;;;;;;;;;19.20;41.40;;;;;;8359068;28;19938;-59
2024/03/19 16:26:50;;;;;;;;;;;19.20;41.30;;;;;;8359186;28;19920;-59
2024/03/19 16:30:52;;;;;;;;;;;19.20;41.40;;;;;;8358505;28;19913;-59
2024/03/19 16:34:52;;;;;;;;;;;19.20;41.40;;;;;;8358638;28;19965;-59
2024/03/19 16:38:53;;;;;;;;;;;19.20;41.40;;;;;;8358279;28;20382;-58
2024/03/19 16:42:54;;;;;;;;;;;19.20;41.50;;;;;;8360083;27;19921;-59
2024/03/19 16:46:54;;;;;;;;;;;19.20;41.40;;;;;;8358518;28;19920;-59
2024/03/19 16:50:56;;;;;;;;;;;19.20;41.40;;;;;;8358265;28;20318;-59
2024/03/19 16:54:58;;;;;;;;;;;19.20;41.40;;;;;;8357961;28;20031;-59
2024/03/19 16:58:59;;;;;;;;;;;19.20;41.40;;;;;;8340116;27;19917;-59
2024/03/19 17:02:59;;;;;;;;;;;19.20;41.50;;;;;;8357781;28;19909;-58
2024/03/19 17:07:00;;;;;;;;;;;19.20;41.50;;;;;;8357957;28;19913;-59
2024/03/19 17:11:00;;;;;;;;;;;19.30;41.50;;;;;;8357579;28;19921;-62
2024/03/19 17:15:01;;;;;;;;;;;19.20;41.60;;;;;;8346909;28;20024;-60
2024/03/19 17:19:01;;;;;;;;;;;19.20;41.60;;;;;;8356882;28;20325;-61
2024/03/19 17:23:04;;;;;;;;;;;19.20;41.80;;;;;;8357434;28;19913;-61
2024/03/19 17:27:05;;;;;;;;;;;19.30;42.00;;;;;;8357276;28;19931;-63
2024/03/19 17:31:05;;;;;;;;;;;19.30;42.10;;;;;;8360014;27;19913;-57
2024/03/19 17:35:06;;;;;;;;;;;19.30;42.40;;;;;;8358383;27;19919;-59
2024/03/19 17:39:09;;;;;;;;;;;19.30;44.40;;;;;;8480557;27;20364;-58
2024/03/19 17:43:09;;;;;;;;;;;19.30;44.50;;;;;;8355996;28;19917;-57
2024/03/19 17:47:11;;;;;;;;;;;19.30;44.30;;;;;;8351088;27;19970;-59
2024/03/19 17:51:12;;;;;;;;;;;19.30;45.80;;;;;;8354572;28;19917;-58
2024/03/19 17:55:13;;;;;;;;;;;19.20;44.50;;;;;;8332837;27;20012;-58
2024/03/19 17:59:13;;;;;;;;;;;19.20;46.20;;;;;;8325392;27;19980;-58
2024/03/19 18:03:14;;;;;;;;;;;19.20;45.60;;;;;;8356777;27;19917;-57
2024/03/19 18:07:14;;;;;;;;;;;19.20;44.90;;;;;;8365210;27;19913;-58
2024/03/19 18:11:15;;;;;;;;;;;19.20;45.30;;;;;;8341075;27;19982;-57
2024/03/19 18:15:16;;;;;;;;;;;19.20;45.60;;;;;;8343857;27;19933;-58
2024/03/19 18:19:17;;;;;;;;;;;19.20;45.20;;;;;;8324630;27;19920;-56
2024/03/19 18:23:18;;;;;;;;;;;19.20;46.90;;;;;;8355135;28;20019;-58
2024/03/19 18:27:18;;;;;;;;;;;19.20;46.60;;;;;;8398336;27;19917;-56
2024/03/19 18:31:19;;;;;;;;;;;19.20;45.90;;;;;;8343534;27;19970;-59
2024/03/19 18:35:19;;;;;;;;;;;19.20;45.70;;;;;;8345780;28;19929;-59
2024/03/19 18:39:23;;;;;;;;;;;19.20;47.50;;;;;;8352638;27;19921;-56
2024/03/19 18:43:24;;;;;;;;;;;19.40;47.20;;;;;;8348333;27;19921;-54
2024/03/19 18:47:25;;;;;;;;;;;19.60;47.80;;;;;;8344755;27;19970;-60
2024/03/19 18:51:25;;;;;;;;;;;19.80;47.60;;;;;;8345660;28;19921;-58
2024/03/19 18:55:26;;;;;;;;;;;19.80;47.60;;;;;;8363552;27;19924;-58
2024/03/19 18:59:27;;;;;;;;;;;19.80;47.70;;;;;;8423764;27;19917;-58
2024/03/19 19:03:28;;;;;;;;;;;19.80;48.20;;;;;;8414246;27;20309;-63
2024/03/19 19:07:30;;;;;;;;;;;19.90;48.20;;;;;;8387261;27;20370;-53
2024/03/19 19:11:31;;;;;;;;;;;19.90;47.70;;;;;;8353836;27;20275;-62
2024/03/19 19:15:31;;;;;;;;;;;19.90;47.90;;;;;;8351348;28;20011;-56
2024/03/19 19:19:32;;;;;;;;;;;20.00;47.70;;;;;;8352295;28;19917;-60
2024/03/19 19:23:32;;;;;;;;;;;20.00;47.90;;;;;;8349662;28;20019;-61
2024/03/19 19:27:33;;;;;;;;;;;20.10;47.80;;;;;;8351658;28;19952;-57
2024/03/19 19:31:34;;;;;;;;;;;20.10;48.00;;;;;;8347664;28;19913;-59
2024/03/19 19:35:34;;;;;;;;;;;20.20;48.20;;;;;;8348967;28;19925;-61
2024/03/19 19:39:35;;;;;;;;;;;20.20;48.30;;;;;;8350621;27;19930;-56
2024/03/19 19:43:38;;;;;;;;;;;20.20;48.10;;;;;;8348292;27;19924;-58
2024/03/19 19:47:38;;;;;;;;;;;20.20;47.80;;;;;;8364785;27;20378;-56
2024/03/19 19:51:40;;;;;;;;;;;20.20;48.00;;;;;;8361380;27;20562;-55
2024/03/19 19:55:41;;;;;;;;;;;20.20;47.90;;;;;;8355257;27;19921;-56
2024/03/19 19:59:41;;;;;;;;;;;20.20;48.00;;;;;;8358193;27;19940;-59
2024/03/19 20:03:42;;;;;;;;;;;20.20;48.00;;;;;;8360361;27;20298;-58
2024/03/19 20:07:46;;;;;;;;;;;20.20;48.50;;;;;;8354441;28;20401;-58
2024/03/19 20:11:46;;;;;;;;;;;20.20;48.60;;;;;;8367316;27;19909;-57
2024/03/19 20:15:47;;;;;;;;;;;20.20;48.50;;;;;;8375127;27;19956;-58
2024/03/19 20:19:48;;;;;;;;;;;20.30;49.10;;;;;;8384691;27;20123;-62
2024/03/19 20:23:48;;;;;;;;;;;20.30;48.70;;;;;;8429747;27;19964;-59
2024/03/19 20:27:49;;;;;;;;;;;20.30;48.70;;;;;;8423508;27;20425;-58
2024/03/19 20:31:50;;;;;;;;;;;20.30;48.30;;;;;;8377304;27;20394;-58
2024/03/19 20:35:51;;;;;;;;;;;20.30;49.00;;;;;;8403061;27;20361;-60
2024/03/19 20:39:52;;;;;;;;;;;20.30;48.70;;;;;;8391645;27;20433;-55
2024/03/19 20:43:52;;;;;;;;;;;20.40;48.90;;;;;;8402984;27;20285;-55
2024/03/19 20:47:53;;;;;;;;;;;20.40;49.10;;;;;;8405241;27;20034;-53
2024/03/19 20:51:53;;;;;;;;;;;20.40;48.40;;;;;;8451533;27;20004;-53
2024/03/19 20:55:54;;;;;;;;;;;20.50;48.40;;;;;;8423186;27;19915;-51
2024/03/19 20:59:55;;;;;;;;;;;20.50;48.50;;;;;;8430533;27;19913;-48
2024/03/19 21:03:55;;;;;;;;;;;20.50;48.50;;;;;;8400269;27;19921;-52
2024/03/19 21:07:59;;;;;;;;;;;20.50;48.60;;;;;;8390436;27;20232;-55
2024/03/19 21:12:17;;;;;;;;;;;20.50;48.50;;;;;;8437226;27;19907;-56
2024/03/19 21:16:20;;;;;;;;;;;20.50;48.60;;;;;;8330884;27;19925;-53
2024/03/19 21:20:24;;;;;;;;;;;20.40;48.70;;;;;;8326455;27;20378;-56
2024/03/19 21:24:24;;;;;;;;;;;20.40;48.60;;;;;;8327108;27;19957;-58
2024/03/19 21:28:25;;;;;;;;;;;20.50;49.20;;;;;;8314968;28;19921;-56
2024/03/19 21:32:29;;;;;;;;;;;20.50;49.30;;;;;;8321194;28;20290;-58
2024/03/19 21:36:35;;;;;;;;;;;20.40;49.30;;;;;;8323270;28;20279;-53
2024/03/19 21:40:35;;;;;;;;;;;20.30;49.30;;;;;;8323337;28;19956;-57
2024/03/19 21:44:36;;;;;;;;;;;20.40;49.50;;;;;;8325853;27;19913;-54
2024/03/19 21:48:36;;;;;;;;;;;20.40;49.00;;;;;;8324028;28;19920;-57
2024/03/19 21:52:37;;;;;;;;;;;20.30;48.70;;;;;;8324302;28;20136;-55
2024/03/19 21:56:38;;;;;;;;;;;20.30;48.70;;;;;;8324654;28;19917;-52
2024/03/19 22:00:38;;;;;;;;;;;20.40;48.60;;;;;;8324138;28;19921;-58
2024/03/19 22:04:39;;;;;;;;;;;20.30;48.60;;;;;;8324483;28;19909;-54
2024/03/19 22:08:39;;;;;;;;;;;20.20;49.20;;;;;;8323510;28;19954;-59
2024/03/19 22:12:40;;;;;;;;;;;20.20;48.80;;;;;;8321447;28;19913;-57
2024/03/19 22:16:40;;;;;;;;;;;20.20;48.40;;;;;;8325926;28;20379;-55
2024/03/19 22:20:41;;;;;;;;;;;20.20;48.30;;;;;;8354829;28;19957;-55
2024/03/19 22:24:41;;;;;;;;;;;20.20;48.00;;;;;;8358889;28;19917;-53
2024/03/19 22:28:42;;;;;;;;;;;20.20;48.10;;;;;;8348959;28;19978;-57
2024/03/19 22:32:43;;;;;;;;;;;20.20;48.30;;;;;;8353350;28;20390;-56
2024/03/19 22:36:43;;;;;;;;;;;20.20;47.70;;;;;;8347523;27;19936;-58
2024/03/19 22:40:48;;;;;;;;;;;20.20;48.10;;;;;;8358574;28;19932;-58
2024/03/19 22:44:48;;;;;;;;;;;20.20;47.40;;;;;;8358256;27;19961;-56
2024/03/19 22:48:49;;;;;;;;;;;20.20;47.60;;;;;;8358306;28;19993;-57
2024/03/19 22:52:51;;;;;;;;;;;20.10;47.70;;;;;;8358223;28;19920;-59
2024/03/19 22:56:52;;;;;;;;;;;20.10;47.60;;;;;;8358173;28;19917;-56
2024/03/19 23:00:54;;;;;;;;;;;20.10;47.50;;;;;;8357453;28;19916;-59
2024/03/19 23:04:55;;;;;;;;;;;20.10;47.60;;;;;;8357113;28;19917;-62
2024/03/19 23:08:55;;;;;;;;;;;20.10;47.50;;;;;;8338102;28;19910;-59
2024/03/19 23:12:56;;;;;;;;;;;20.00;47.70;;;;;;8405311;28;19948;-63
2024/03/19 23:16:56;;;;;;;;;;;20.00;47.50;;;;;;8358182;28;19925;-56
2024/03/19 23:20:57;;;;;;;;;;;20.10;47.50;;;;;;8362754;28;19913;-53